createdAt,value
2018-04-29T00:00:53.585Z,6.73
2018-04-29T00:03:21.904Z,6.10
2018-04-29T00:05:50.004Z,6.83
2018-04-29T00:08:18.130Z,8.20
2018-04-29T00:10:46.247Z,8.37
2018-04-29T00:13:14.346Z,7.97
2018-04-29T00:15:42.456Z,7.83
2018-04-29T00:18:10.543Z,7.97
2018-04-29T00:20:38.626Z,6.70
2018-04-29T00:23:06.943Z,7.80
2018-04-29T00:25:35.063Z,7.83
2018-04-29T00:28:03.224Z,7.37
2018-04-29T00:30:31.325Z,7.27
2018-04-29T00:32:59.551Z,6.43
2018-04-29T00:35:27.786Z,6.40
2018-04-29T00:37:55.889Z,6.53
2018-04-29T00:40:24.020Z,7.27
2018-04-29T00:42:52.170Z,6.57
2018-04-29T00:45:20.443Z,7.23
2018-04-29T00:47:48.572Z,6.50
2018-04-29T00:50:16.695Z,6.93
2018-04-29T00:52:44.804Z,8.07
2018-04-29T00:55:12.989Z,7.43
2018-04-29T00:57:41.064Z,7.40
2018-04-29T01:00:09.192Z,6.47
2018-04-29T01:02:37.321Z,7.07
2018-04-29T01:05:05.418Z,6.53
2018-04-29T01:07:33.707Z,5.63
2018-04-29T01:10:01.827Z,6.67
2018-04-29T01:12:30.671Z,6.53
2018-04-29T01:14:58.762Z,7.13
2018-04-29T01:17:26.902Z,6.43
2018-04-29T01:19:55.014Z,7.10
2018-04-29T01:22:23.197Z,6.70
2018-04-29T01:24:51.320Z,7.07
2018-04-29T01:27:19.424Z,6.97
2018-04-29T01:29:47.601Z,8.10
2018-04-29T01:32:15.766Z,7.10
2018-04-29T01:34:43.916Z,7.73
2018-04-29T01:37:12.044Z,8.20
2018-04-29T01:39:40.207Z,8.40
2018-04-29T01:42:08.337Z,8.30
2018-04-29T01:44:36.434Z,7.87
2018-04-29T01:47:04.527Z,8.47
2018-04-29T01:49:32.646Z,8.00
2018-04-29T01:52:01.051Z,7.20
2018-04-29T01:54:29.193Z,8.00
2018-04-29T01:56:57.307Z,7.83
2018-04-29T01:59:25.491Z,7.77
2018-04-29T02:01:53.696Z,6.60
2018-04-29T02:04:21.805Z,6.50
2018-04-29T02:06:49.948Z,6.57
2018-04-29T02:09:18.472Z,6.60
2018-04-29T02:11:46.588Z,6.53
2018-04-29T02:14:14.870Z,6.10
2018-04-29T02:16:42.995Z,6.50
2018-04-29T02:19:11.119Z,6.83
2018-04-29T02:21:39.225Z,6.60
2018-04-29T02:24:07.342Z,6.53
2018-04-29T02:26:35.468Z,7.17
2018-04-29T02:29:03.622Z,7.33
2018-04-29T02:31:31.726Z,7.43
2018-04-29T02:33:59.835Z,6.67
2018-04-29T02:36:27.987Z,6.80
2018-04-29T02:38:56.102Z,7.27
2018-04-29T02:41:24.227Z,6.97
2018-04-29T02:43:52.369Z,6.87
2018-04-29T02:46:20.468Z,7.07
2018-04-29T02:48:48.616Z,6.80
2018-04-29T02:51:16.715Z,6.37
2018-04-29T02:53:44.926Z,6.67
2018-04-29T02:56:13.028Z,7.37
2018-04-29T02:58:41.174Z,7.10
2018-04-29T03:01:09.269Z,6.70
2018-04-29T03:03:37.402Z,7.20
2018-04-29T03:06:05.508Z,6.33
2018-04-29T03:08:33.631Z,6.67
2018-04-29T03:11:01.720Z,6.57
2018-04-29T03:13:30.114Z,5.97
2018-04-29T03:15:58.276Z,6.20
2018-04-29T03:18:26.387Z,6.60
2018-04-29T03:20:54.470Z,6.63
2018-04-29T03:23:22.570Z,7.07
2018-04-29T03:25:50.735Z,6.47
2018-04-29T03:28:18.824Z,6.70
2018-04-29T03:30:46.903Z,6.57
2018-04-29T03:33:14.998Z,6.10
2018-04-29T03:35:43.087Z,6.67
2018-04-29T03:38:11.204Z,8.23
2018-04-29T03:40:39.273Z,7.90
2018-04-29T03:43:07.370Z,7.70
2018-04-29T03:45:35.448Z,7.67
2018-04-29T03:48:03.638Z,7.87
2018-04-29T03:50:31.724Z,7.60
2018-04-29T03:52:59.828Z,7.97
2018-04-29T03:55:27.953Z,7.97
2018-04-29T03:58:07.830Z,8.17
2018-04-29T04:00:58.540Z,7.23
2018-04-29T04:03:38.643Z,7.07
2018-04-29T04:06:06.773Z,7.40
2018-04-29T04:08:35.053Z,7.43
2018-04-29T04:11:03.230Z,7.80
2018-04-29T04:13:31.569Z,7.20
2018-04-29T04:15:59.890Z,8.10
2018-04-29T04:18:28.133Z,7.00
2018-04-29T04:20:56.468Z,7.00
2018-04-29T04:23:24.755Z,7.27
2018-04-29T04:25:53.082Z,7.97
2018-04-29T04:28:21.650Z,7.43
2018-04-29T04:30:49.986Z,7.27
2018-04-29T04:33:18.309Z,8.67
2018-04-29T04:35:46.729Z,7.87
2018-04-29T04:38:14.968Z,8.13
2018-04-29T04:40:43.190Z,7.80
2018-04-29T04:43:11.724Z,9.37
2018-04-29T04:45:40.034Z,10.20
2018-04-29T04:48:08.372Z,9.50
2018-04-29T04:50:36.710Z,10.77
2018-04-29T04:53:05.051Z,9.07
2018-04-29T04:55:33.295Z,10.57
2018-04-29T04:58:01.734Z,9.97
2018-04-29T05:00:30.054Z,10.93
2018-04-29T05:02:58.438Z,10.43
2018-04-29T05:05:26.757Z,10.23
2018-04-29T05:07:54.905Z,9.30
2018-04-29T05:10:23.276Z,10.23
2018-04-29T05:12:51.814Z,11.03
2018-04-29T05:15:20.009Z,10.67
2018-04-29T05:17:48.284Z,9.43
2018-04-29T05:20:16.534Z,11.00
2018-04-29T05:22:44.745Z,9.67
2018-04-29T05:25:12.988Z,8.93
2018-04-29T05:27:41.284Z,9.50
2018-04-29T05:30:09.661Z,9.53
2018-04-29T05:32:38.053Z,9.23
2018-04-29T05:35:06.499Z,9.63
2018-04-29T05:37:34.708Z,10.00
2018-04-29T05:40:03.373Z,9.83
2018-04-29T05:42:32.220Z,9.63
2018-04-29T05:45:00.528Z,10.33
2018-04-29T05:47:28.759Z,11.37
2018-04-29T05:49:57.087Z,10.60
2018-04-29T05:52:25.585Z,9.93
2018-04-29T05:54:55.051Z,9.27
2018-04-29T05:57:23.437Z,9.73
2018-04-29T05:59:51.631Z,9.33
2018-04-29T06:02:19.921Z,9.23
2018-04-29T06:04:48.495Z,8.20
2018-04-29T06:07:16.689Z,8.70
2018-04-29T06:09:45.004Z,8.77
2018-04-29T06:12:13.213Z,7.90
2018-04-29T06:14:41.562Z,7.33
2018-04-29T06:17:09.813Z,7.53
2018-04-29T06:19:38.985Z,7.33
2018-04-29T06:22:07.266Z,8.07
2018-04-29T06:24:35.686Z,7.40
2018-04-29T06:27:03.979Z,8.13
2018-04-29T06:29:32.300Z,8.00
2018-04-29T06:32:00.646Z,7.47
2018-04-29T06:34:29.085Z,8.93
2018-04-29T06:36:57.221Z,8.67
2018-04-29T06:39:25.529Z,8.07
2018-04-29T06:41:53.862Z,8.57
2018-04-29T06:44:22.407Z,8.37
2018-04-29T06:46:50.779Z,10.57
2018-04-29T06:49:19.253Z,7.80
2018-04-29T06:51:47.563Z,8.97
2018-04-29T06:54:15.871Z,8.63
2018-04-29T06:56:44.226Z,7.90
2018-04-29T06:59:12.533Z,8.40
2018-04-29T07:01:40.784Z,7.70
2018-04-29T07:04:09.206Z,7.87
2018-04-29T07:06:37.437Z,9.00
2018-04-29T07:09:05.740Z,7.93
2018-04-29T07:11:34.150Z,7.73
2018-04-29T07:14:02.361Z,7.57
2018-04-29T07:16:30.626Z,7.97
2018-04-29T07:18:58.880Z,6.97
2018-04-29T07:21:27.197Z,7.63
2018-04-29T07:23:55.509Z,7.23
2018-04-29T07:26:24.139Z,6.53
2018-04-29T07:28:52.425Z,6.47
2018-04-29T07:31:20.720Z,6.70
2018-04-29T07:33:49.185Z,6.73
2018-04-29T07:36:17.488Z,6.90
2018-04-29T07:38:45.838Z,6.03
2018-04-29T07:41:14.145Z,6.07
2018-04-29T07:43:42.660Z,5.73
2018-04-29T07:46:10.876Z,5.97
2018-04-29T07:48:39.157Z,5.97
2018-04-29T07:51:07.446Z,5.40
2018-04-29T07:53:35.848Z,5.67
2018-04-29T07:56:04.250Z,5.87
2018-04-29T07:58:32.561Z,5.10
2018-04-29T08:01:00.801Z,4.77
2018-04-29T08:03:29.192Z,5.70
2018-04-29T08:05:57.499Z,5.00
2018-04-29T08:08:25.825Z,5.90
2018-04-29T08:10:54.173Z,5.17
2018-04-29T08:13:22.358Z,5.70
2018-04-29T08:15:50.655Z,5.57
2018-04-29T08:18:19.154Z,4.73
2018-04-29T08:20:47.471Z,5.90
2018-04-29T08:23:17.857Z,5.47
2018-04-29T08:25:46.269Z,4.97
2018-04-29T08:28:14.503Z,5.63
2018-04-29T08:30:42.661Z,5.10
2018-04-29T08:33:10.951Z,5.00
2018-04-29T08:35:39.402Z,5.20
2018-04-29T08:38:07.834Z,5.43
2018-04-29T08:40:36.283Z,5.00
2018-04-29T08:43:04.427Z,4.90
2018-04-29T08:45:32.603Z,4.60
2018-04-29T08:48:00.990Z,4.63
2018-04-29T08:50:29.512Z,5.10
2018-04-29T08:52:57.651Z,4.47
2018-04-29T08:55:25.922Z,5.03
2018-04-29T08:57:54.347Z,4.60
2018-04-29T09:00:22.580Z,4.27
2018-04-29T09:02:50.822Z,5.13
2018-04-29T09:05:19.293Z,5.10
2018-04-29T09:07:47.590Z,5.40
2018-04-29T09:10:15.804Z,4.77
2018-04-29T09:12:44.339Z,5.43
2018-04-29T09:15:12.543Z,4.87
2018-04-29T09:17:40.790Z,4.60
2018-04-29T09:20:09.250Z,4.57
2018-04-29T09:22:37.541Z,4.77
2018-04-29T09:25:05.839Z,4.80
2018-04-29T09:27:34.170Z,5.13
2018-04-29T09:30:02.446Z,5.03
2018-04-29T09:32:30.844Z,5.27
2018-04-29T09:34:59.191Z,4.60
2018-04-29T09:37:27.329Z,4.50
2018-04-29T09:39:55.727Z,4.60
2018-04-29T09:42:24.203Z,4.03
2018-04-29T09:44:52.608Z,5.90
2018-04-29T09:47:20.807Z,4.60
2018-04-29T09:49:49.293Z,4.70
2018-04-29T09:52:17.670Z,5.37
2018-04-29T09:54:45.956Z,5.10
2018-04-29T09:57:14.253Z,6.07
2018-04-29T09:59:42.700Z,4.93
2018-04-29T10:02:11.929Z,4.97
2018-04-29T10:04:40.673Z,5.20
2018-04-29T10:07:09.227Z,5.37
2018-04-29T10:09:37.646Z,5.07
2018-04-29T10:12:05.897Z,5.80
2018-04-29T10:14:34.312Z,5.40
2018-04-29T10:17:02.573Z,5.37
2018-04-29T10:19:30.995Z,5.53
2018-04-29T10:21:59.257Z,6.00
2018-04-29T10:24:27.732Z,5.93
2018-04-29T10:26:55.936Z,6.10
2018-04-29T10:29:24.206Z,5.90
2018-04-29T10:31:52.938Z,5.60
2018-04-29T10:34:21.203Z,4.70
2018-04-29T10:36:49.309Z,5.20
2018-04-29T10:39:17.573Z,5.67
2018-04-29T10:41:45.848Z,5.63
2018-04-29T10:44:14.158Z,6.70
2018-04-29T10:46:42.399Z,4.93
2018-04-29T10:49:10.744Z,5.80
2018-04-29T10:51:39.034Z,5.30
2018-04-29T10:54:07.429Z,4.67
2018-04-29T10:56:35.970Z,3.73
2018-04-29T10:59:04.151Z,3.53
2018-04-29T11:01:32.253Z,3.97
2018-04-29T11:04:00.486Z,3.30
2018-04-29T11:06:28.727Z,3.17
2018-04-29T11:08:56.885Z,3.87
2018-04-29T11:11:26.725Z,3.90
2018-04-29T11:13:54.875Z,4.20
2018-04-29T11:16:23.144Z,5.20
2018-04-29T11:18:52.261Z,5.27
2018-04-29T11:21:20.488Z,4.70
2018-04-29T11:23:48.849Z,5.20
2018-04-29T11:26:16.985Z,5.30
2018-04-29T11:28:45.121Z,4.93
2018-04-29T11:31:13.314Z,5.57
2018-04-29T11:33:41.689Z,4.60
2018-04-29T11:36:10.178Z,5.00
2018-04-29T11:38:38.364Z,5.47
2018-04-29T11:41:06.690Z,4.67
2018-04-29T11:43:34.932Z,4.80
2018-04-29T11:46:03.260Z,5.40
2018-04-29T11:48:31.602Z,5.37
2018-04-29T11:50:59.785Z,5.20
2018-04-29T11:53:28.006Z,5.27
2018-04-29T11:55:56.232Z,5.40
2018-04-29T11:58:24.451Z,5.50
2018-04-29T12:00:52.756Z,5.73
2018-04-29T12:03:20.996Z,5.10
2018-04-29T12:05:49.336Z,4.80
2018-04-29T12:08:17.618Z,4.60
2018-04-29T12:10:45.918Z,5.17
2018-04-29T12:13:14.254Z,5.80
2018-04-29T12:15:42.586Z,4.87
2018-04-29T12:18:10.822Z,5.33
2018-04-29T12:20:39.204Z,4.60
2018-04-29T12:23:07.352Z,4.17
2018-04-29T12:25:35.591Z,3.90
2018-04-29T12:28:03.924Z,4.10
2018-04-29T12:30:32.108Z,4.20
2018-04-29T12:33:00.300Z,3.57
2018-04-29T12:35:28.519Z,4.00
2018-04-29T12:37:56.741Z,3.60
2018-04-29T12:40:25.084Z,3.90
2018-04-29T12:42:53.322Z,3.73
2018-04-29T12:45:21.654Z,3.13
2018-04-29T12:47:49.904Z,4.30
2018-04-29T12:50:18.154Z,3.00
2018-04-29T12:52:46.544Z,4.17
2018-04-29T12:55:14.794Z,3.67
2018-04-29T12:57:42.976Z,3.83
2018-04-29T13:00:11.400Z,3.33
2018-04-29T13:02:39.500Z,4.07
2018-04-29T13:05:07.826Z,3.07
2018-04-29T13:07:36.120Z,3.70
2018-04-29T13:10:04.315Z,3.57
2018-04-29T13:12:32.585Z,3.43
2018-04-29T13:15:01.111Z,2.93
2018-04-29T13:17:29.288Z,3.33
2018-04-29T13:19:58.934Z,3.67
2018-04-29T13:22:27.223Z,4.00
2018-04-29T13:24:55.473Z,3.67
2018-04-29T13:27:23.792Z,4.07
2018-04-29T13:29:51.975Z,3.30
2018-04-29T13:32:20.118Z,3.60
2018-04-29T13:34:48.348Z,3.37
2018-04-29T13:37:16.734Z,3.77
2018-04-29T13:39:45.004Z,3.90
2018-04-29T13:42:13.290Z,3.30
2018-04-29T13:44:41.513Z,4.40
2018-04-29T13:47:09.660Z,4.03
2018-04-29T13:49:37.799Z,4.43
2018-04-29T13:52:06.057Z,3.57
2018-04-29T13:54:34.338Z,4.87
2018-04-29T13:57:02.554Z,4.70
2018-04-29T13:59:30.815Z,4.20
2018-04-29T14:01:59.272Z,2.77
2018-04-29T14:04:27.489Z,4.20
2018-04-29T14:06:55.941Z,4.47
2018-04-29T14:09:24.608Z,4.40
2018-04-29T14:11:52.834Z,4.90
2018-04-29T14:14:21.102Z,4.77
2018-04-29T14:16:49.986Z,4.43
2018-04-29T14:19:18.268Z,4.53
2018-04-29T14:21:46.683Z,4.50
2018-04-29T14:24:14.981Z,4.20
2018-04-29T14:26:43.336Z,4.60
2018-04-29T14:29:11.885Z,4.53
2018-04-29T14:31:40.182Z,2.97
2018-04-29T14:34:08.463Z,4.40
2018-04-29T14:36:36.926Z,3.77
2018-04-29T14:39:05.234Z,4.97
2018-04-29T14:41:33.459Z,5.33
2018-04-29T14:44:01.833Z,4.00
2018-04-29T14:46:30.190Z,3.77
2018-04-29T14:48:58.507Z,3.83
2018-04-29T14:51:26.914Z,4.03
2018-04-29T14:53:55.291Z,4.20
2018-04-29T14:56:23.598Z,3.70
2018-04-29T14:58:51.850Z,4.30
2018-04-29T15:01:20.195Z,4.53
2018-04-29T15:03:48.443Z,4.30
2018-04-29T15:06:16.935Z,4.40
2018-04-29T15:08:45.236Z,4.23
2018-04-29T15:11:13.497Z,4.03
2018-04-29T15:13:41.890Z,3.93
2018-04-29T15:16:10.166Z,4.70
2018-04-29T15:18:50.122Z,4.23
2018-04-29T15:21:18.312Z,3.90
2018-04-29T15:23:46.700Z,3.60
2018-04-29T15:26:14.931Z,3.37
2018-04-29T15:28:43.308Z,3.70
2018-04-29T15:31:11.676Z,3.90
2018-04-29T15:33:39.941Z,3.57
2018-04-29T15:36:08.748Z,3.87
2018-04-29T15:38:36.935Z,4.20
2018-04-29T15:41:05.079Z,6.00
2018-04-29T15:43:33.262Z,5.50
2018-04-29T15:46:01.522Z,5.73
2018-04-29T15:48:29.758Z,4.90
2018-04-29T15:50:58.066Z,5.53
2018-04-29T15:53:26.363Z,5.87
2018-04-29T15:55:54.589Z,5.37
2018-04-29T15:58:23.104Z,5.77
2018-04-29T16:00:51.715Z,4.70
2018-04-29T16:03:20.862Z,4.20
2018-04-29T16:05:49.521Z,4.50
2018-04-29T16:08:17.920Z,3.80
2018-04-29T16:10:46.333Z,4.27
2018-04-29T16:13:14.722Z,4.63
2018-04-29T16:15:43.303Z,4.77
2018-04-29T16:18:11.686Z,4.23
2018-04-29T16:20:40.105Z,4.77
2018-04-29T16:23:08.664Z,4.90
2018-04-29T16:25:37.085Z,5.03
2018-04-29T16:28:05.585Z,4.73
2018-04-29T16:30:33.888Z,4.50
2018-04-29T16:33:02.147Z,5.03
2018-04-29T16:35:30.704Z,4.47
2018-04-29T16:37:59.097Z,4.70
2018-04-29T16:40:27.491Z,4.60
2018-04-29T16:42:55.884Z,4.53
2018-04-29T16:45:24.384Z,4.47
2018-04-29T16:47:52.747Z,5.10
2018-04-29T16:50:21.201Z,5.10
2018-04-29T16:52:49.698Z,4.87
2018-04-29T16:55:18.127Z,4.87
2018-04-29T16:57:46.805Z,4.90
2018-04-29T17:00:15.136Z,4.43
2018-04-29T17:02:43.706Z,4.50
2018-04-29T17:05:12.249Z,4.20
2018-04-29T17:07:40.763Z,4.23
2018-04-29T17:10:09.585Z,3.80
2018-04-29T17:12:38.150Z,4.13
2018-04-29T17:15:06.596Z,4.97
2018-04-29T17:17:34.857Z,4.47
2018-04-29T17:20:03.891Z,4.40
2018-04-29T17:22:32.425Z,4.20
2018-04-29T17:25:01.189Z,4.30
2018-04-29T17:27:29.824Z,5.20
2018-04-29T17:29:58.617Z,4.13
2018-04-29T17:32:27.136Z,3.43
2018-04-29T17:34:55.878Z,3.87
2018-04-29T17:37:25.083Z,4.00
2018-04-29T17:39:54.491Z,4.13
2018-04-29T17:42:22.945Z,4.10
2018-04-29T17:44:51.703Z,3.87
2018-04-29T17:47:20.173Z,4.20
2018-04-29T17:49:48.643Z,3.83
2018-04-29T17:52:17.160Z,3.80
2018-04-29T17:54:46.008Z,3.93
2018-04-29T17:57:14.627Z,4.27
2018-04-29T17:59:44.832Z,3.87
2018-04-29T18:02:13.481Z,3.80
2018-04-29T18:04:42.256Z,3.97
2018-04-29T18:07:10.888Z,4.40
2018-04-29T18:09:39.617Z,4.30
2018-04-29T18:12:07.936Z,3.83
2018-04-29T18:14:36.364Z,3.53
2018-04-29T18:17:04.714Z,4.13
2018-04-29T18:19:33.101Z,4.43
2018-04-29T18:22:01.577Z,4.07
2018-04-29T18:24:29.933Z,3.63
2018-04-29T18:26:58.458Z,3.50
2018-04-29T18:29:26.942Z,3.77
2018-04-29T18:31:55.271Z,4.00
2018-04-29T18:34:23.399Z,4.07
2018-04-29T18:36:51.665Z,3.77
2018-04-29T18:39:19.909Z,3.57
2018-04-29T18:41:48.353Z,4.87
2018-04-29T18:44:16.523Z,3.90
2018-04-29T18:46:44.651Z,3.77
2018-04-29T18:49:12.770Z,3.90
2018-04-29T18:51:40.942Z,4.30
2018-04-29T18:54:08.992Z,3.67
2018-04-29T18:56:37.276Z,4.20
2018-04-29T18:59:05.353Z,3.13
2018-04-29T19:01:33.467Z,4.03
2018-04-29T19:04:01.566Z,3.70
2018-04-29T19:06:29.695Z,3.90
2018-04-29T19:08:57.793Z,3.50
2018-04-29T19:11:26.087Z,3.10
2018-04-29T19:13:54.204Z,3.83
2018-04-29T19:16:22.390Z,3.63
2018-04-29T19:18:50.516Z,3.50
2018-04-29T19:21:18.714Z,3.53
2018-04-29T19:23:46.810Z,4.13
2018-04-29T19:26:15.010Z,3.63
2018-04-29T19:28:43.203Z,3.40
2018-04-29T19:31:11.343Z,3.33
2018-04-29T19:33:39.648Z,3.60
2018-04-29T19:36:07.950Z,3.73
2018-04-29T19:38:36.160Z,3.70
2018-04-29T19:41:04.276Z,3.50
2018-04-29T19:43:32.406Z,4.73
2018-04-29T19:46:00.596Z,5.07
2018-04-29T19:48:28.747Z,4.40
2018-04-29T19:50:56.897Z,4.87
2018-04-29T19:53:25.022Z,4.90
2018-04-29T19:55:53.200Z,5.40
2018-04-29T19:58:21.361Z,5.27
2018-04-29T20:00:49.538Z,4.97
2018-04-29T20:03:17.705Z,4.40
2018-04-29T20:05:45.878Z,4.90
2018-04-29T20:08:14.067Z,4.50
2018-04-29T20:10:42.232Z,5.37
2018-04-29T20:13:10.468Z,4.77
2018-04-29T20:15:38.621Z,4.97
2018-04-29T20:18:06.773Z,4.20
2018-04-29T20:20:34.988Z,5.33
2018-04-29T20:23:03.188Z,4.17
2018-04-29T20:25:31.279Z,4.50
2018-04-29T20:27:59.395Z,4.23
2018-04-29T20:30:27.743Z,4.33
2018-04-29T20:32:55.915Z,4.27
2018-04-29T20:35:24.082Z,5.07
2018-04-29T20:37:52.332Z,4.80
2018-04-29T20:40:20.670Z,5.33
2018-04-29T20:42:48.814Z,5.37
2018-04-29T20:45:16.951Z,4.83
2018-04-29T20:47:45.087Z,4.10
2018-04-29T20:50:13.253Z,4.37
2018-04-29T20:52:41.384Z,4.53
2018-04-29T20:55:09.506Z,4.40
2018-04-29T20:57:37.643Z,4.70
2018-04-29T21:00:05.766Z,4.30
2018-04-29T21:02:33.902Z,4.30
2018-04-29T21:05:02.057Z,4.37
2018-04-29T21:07:30.209Z,4.60
2018-04-29T21:09:58.369Z,4.87
2018-04-29T21:12:26.566Z,4.87
2018-04-29T21:14:54.863Z,4.80
2018-04-29T21:17:23.110Z,4.77
2018-04-29T21:19:51.298Z,4.83
2018-04-29T21:22:19.613Z,4.83
2018-04-29T21:24:47.733Z,4.57
2018-04-29T21:27:15.868Z,4.43
2018-04-29T21:29:44.053Z,4.93
2018-04-29T21:32:12.207Z,5.03
2018-04-29T21:34:40.526Z,4.93
2018-04-29T21:37:08.734Z,4.43
2018-04-29T21:39:36.942Z,5.13
2018-04-29T21:42:05.153Z,4.80
2018-04-29T21:44:33.302Z,5.40
2018-04-29T21:47:01.797Z,4.93
2018-04-29T21:49:30.559Z,4.40
2018-04-29T21:51:58.694Z,4.70
2018-04-29T21:54:26.830Z,5.00
2018-04-29T21:56:55.008Z,5.00
2018-04-29T21:59:23.393Z,5.33
2018-04-29T22:01:51.609Z,4.87
2018-04-29T22:04:19.899Z,4.87
2018-04-29T22:06:47.976Z,5.23
2018-04-29T22:09:16.176Z,5.20
2018-04-29T22:11:44.282Z,4.70
2018-04-29T22:14:12.404Z,4.93
2018-04-29T22:16:40.556Z,5.43
2018-04-29T22:19:08.678Z,4.83
2018-04-29T22:21:37.050Z,5.20
2018-04-29T22:24:05.129Z,4.83
2018-04-29T22:26:33.406Z,5.07
2018-04-29T22:29:01.668Z,5.80
2018-04-29T22:31:29.890Z,5.40
2018-04-29T22:33:58.005Z,5.30
2018-04-29T22:36:26.310Z,5.23
2018-04-29T22:38:54.462Z,5.80
2018-04-29T22:41:23.562Z,5.57
2018-04-29T22:43:51.706Z,4.97
2018-04-29T22:46:19.833Z,5.70
2018-04-29T22:48:48.033Z,5.30
2018-04-29T22:51:16.214Z,6.00
2018-04-29T22:53:44.446Z,4.93
2018-04-29T22:56:12.641Z,5.30
2018-04-29T22:58:40.776Z,5.40
2018-04-29T23:01:08.886Z,5.53
2018-04-29T23:03:37.046Z,5.73
2018-04-29T23:06:05.149Z,6.07
2018-04-29T23:08:33.295Z,5.33
2018-04-29T23:11:01.436Z,5.43
2018-04-29T23:13:29.533Z,5.20
2018-04-29T23:15:57.658Z,5.90
2018-04-29T23:18:25.847Z,5.23
2018-04-29T23:20:54.087Z,5.57
2018-04-29T23:23:22.171Z,5.23
2018-04-29T23:25:50.307Z,4.93
2018-04-29T23:28:18.415Z,5.27
2018-04-29T23:30:46.635Z,5.10
2018-04-29T23:33:14.756Z,5.30
2018-04-29T23:35:43.120Z,5.50
2018-04-29T23:38:11.385Z,4.83
2018-04-29T23:40:39.470Z,5.23
2018-04-29T23:43:07.632Z,4.93
2018-04-29T23:45:35.797Z,5.33
2018-04-29T23:48:03.934Z,5.23
2018-04-29T23:50:32.021Z,5.17
2018-04-29T23:53:00.178Z,4.40
2018-04-29T23:55:28.389Z,5.57
2018-04-29T23:57:56.591Z,5.33
